sensor_id;sensor_type;location;lat;lon;timestamp;temperature;humidity
13494;DHT22;6819;50.886;4.332;2024-03-23T03:11:48;7.30;99.90
13494;DHT22;6819;50.886;4.332;2024-03-23T03:14:14;7.40;99.90
13494;DHT22;6819;50.886;4.332;2024-03-23T03:16:40;7.40;99.90
13494;DHT22;6819;50.886;4.332;2024-03-23T03:19:05;7.30;99.90
13494;DHT22;6819;50.886;4.332;2024-03-23T03:21:32;7.40;99.90
13494;DHT22;6819;50.886;4.332;2024-03-23T03:23:58;7.30;99.90
13494;DHT22;6819;50.886;4.332;2024-03-23T03:26:24;7.30;99.90
13494;DHT22;6819;50.886;4.332;2024-03-23T03:28:50;7.40;99.90
13494;DHT22;6819;50.886;4.332;2024-03-23T03:31:16;7.30;99.90
13494;DHT22;6819;50.886;4.332;2024-03-23T03:33:42;7.20;99.90
13494;DHT22;6819;50.886;4.332;2024-03-23T03:36:08;7.30;99.90
13494;DHT22;6819;50.886;4.332;2024-03-23T03:38:34;7.30;99.90
13494;DHT22;6819;50.886;4.332;2024-03-23T03:41:04;7.30;99.90
13494;DHT22;6819;50.886;4.332;2024-03-23T03:43:29;7.20;99.90
13494;DHT22;6819;50.886;4.332;2024-03-23T03:45:56;7.20;99.90
13494;DHT22;6819;50.886;4.332;2024-03-23T03:48:22;7.20;99.90
13494;DHT22;6819;50.886;4.332;2024-03-23T03:50:49;7.10;99.90
13494;DHT22;6819;50.886;4.332;2024-03-23T03:53:15;7.20;99.90
13494;DHT22;6819;50.886;4.332;2024-03-23T03:55:41;7.10;99.90
13494;DHT22;6819;50.886;4.332;2024-03-23T03:58:06;7.20;99.90
13494;DHT22;6819;50.886;4.332;2024-03-23T04:00:32;7.20;99.90
13494;DHT22;6819;50.886;4.332;2024-03-23T04:10:16;7.00;99.90
13494;DHT22;6819;50.886;4.332;2024-03-23T04:12:43;7.00;99.90
13494;DHT22;6819;50.886;4.332;2024-03-23T04:15:08;7.00;99.90
13494;DHT22;6819;50.886;4.332;2024-03-23T09:23:21;8.40;99.90
13494;DHT22;6819;50.886;4.332;2024-03-23T09:25:46;8.40;99.90
13494;DHT22;6819;50.886;4.332;2024-03-23T09:28:12;8.40;99.90
13494;DHT22;6819;50.886;4.332;2024-03-23T09:30:38;8.30;99.90
13494;DHT22;6819;50.886;4.332;2024-03-23T09:33:10;8.20;99.90
13494;DHT22;6819;50.886;4.332;2024-03-23T09:35:40;8.20;99.90
13494;DHT22;6819;50.886;4.332;2024-03-23T09:38:06;8.20;99.90
13494;DHT22;6819;50.886;4.332;2024-03-23T09:40:44;8.20;99.90
13494;DHT22;6819;50.886;4.332;2024-03-23T09:43:11;8.40;99.90
13494;DHT22;6819;50.886;4.332;2024-03-23T09:45:40;8.40;99.90
13494;DHT22;6819;50.886;4.332;2024-03-23T09:48:09;8.40;99.90
13494;DHT22;6819;50.886;4.332;2024-03-23T09:50:39;8.80;99.90
13494;DHT22;6819;50.886;4.332;2024-03-23T09:58:02;8.90;99.90
13494;DHT22;6819;50.886;4.332;2024-03-23T10:00:30;9.20;99.90
13494;DHT22;6819;50.886;4.332;2024-03-23T10:07:55;9.10;99.90
13494;DHT22;6819;50.886;4.332;2024-03-23T10:10:21;9.10;99.90
13494;DHT22;6819;50.886;4.332;2024-03-23T10:20:23;8.90;99.90
13494;DHT22;6819;50.886;4.332;2024-03-23T10:22:50;8.90;99.90
13494;DHT22;6819;50.886;4.332;2024-03-23T22:05:37;5.40;99.90
13494;DHT22;6819;50.886;4.332;2024-03-23T22:08:04;5.50;99.90
13494;DHT22;6819;50.886;4.332;2024-03-23T22:10:31;5.40;99.90
13494;DHT22;6819;50.886;4.332;2024-03-23T22:12:57;5.30;99.90
13494;DHT22;6819;50.886;4.332;2024-03-23T22:15:23;5.40;99.90
13494;DHT22;6819;50.886;4.332;2024-03-23T22:17:49;5.40;99.90
13494;DHT22;6819;50.886;4.332;2024-03-23T22:20:15;5.30;99.90
13494;DHT22;6819;50.886;4.332;2024-03-23T22:22:41;5.40;99.90
13494;DHT22;6819;50.886;4.332;2024-03-23T22:25:07;5.30;99.90
13494;DHT22;6819;50.886;4.332;2024-03-23T22:27:33;5.40;99.90
13494;DHT22;6819;50.886;4.332;2024-03-23T22:29:59;5.50;99.90
13494;DHT22;6819;50.886;4.332;2024-03-23T22:32:25;5.40;99.90
13494;DHT22;6819;50.886;4.332;2024-03-23T22:34:50;5.40;99.90
13494;DHT22;6819;50.886;4.332;2024-03-23T22:37:16;5.40;99.90
